createdAt,value
2023-06-09T00:03:04.606Z,60.82
2023-06-09T00:07:06.876Z,61.63
2023-06-09T00:11:10.448Z,59.18
2023-06-09T00:15:12.427Z,60.75
2023-06-09T00:19:14.613Z,61.41
2023-06-09T00:23:16.234Z,62.17
2023-06-09T00:27:17.734Z,60.84
2023-06-09T00:31:19.395Z,62.51
2023-06-09T00:35:21.184Z,60.09
2023-06-09T00:39:24.003Z,60.54
2023-06-09T00:43:25.562Z,59.25
2023-06-09T00:47:27.892Z,60.19
2023-06-09T00:51:30.981Z,60.43
2023-06-09T00:55:34.629Z,59.05
2023-06-09T00:59:37.111Z,57.61
2023-06-09T01:03:39.273Z,57.95
2023-06-09T01:07:56.632Z,59.23
2023-06-09T01:12:07.069Z,59.29
2023-06-09T01:16:23.553Z,57.51
2023-06-09T01:21:13.925Z,58.56
2023-06-09T01:25:36.870Z,57.74
2023-06-09T01:29:41.931Z,59.33
2023-06-09T01:33:45.679Z,59.15
2023-06-09T01:37:47.244Z,61.59
2023-06-09T01:41:48.746Z,61.97
2023-06-09T01:45:50.763Z,61.95
2023-06-09T01:50:06.117Z,60.33
2023-06-09T01:54:11.818Z,61.49
2023-06-09T01:58:23.807Z,61.16
2023-06-09T02:02:31.666Z,60.51
2023-06-09T02:06:35.037Z,59.10
2023-06-09T02:10:38.024Z,58.26
2023-06-09T02:14:40.709Z,58.33
2023-06-09T02:18:44.989Z,57.48
2023-06-09T02:22:46.619Z,59.56
2023-06-09T02:26:51.321Z,58.96
2023-06-09T02:30:53.116Z,61.61
2023-06-09T02:34:54.689Z,61.30
2023-06-09T02:38:56.240Z,62.37
2023-06-09T02:42:57.805Z,63.71
2023-06-09T02:47:00.765Z,64.29
2023-06-09T02:51:02.889Z,67.97
2023-06-09T02:55:05.090Z,69.51
2023-06-09T02:59:06.763Z,70.81
2023-06-09T03:03:09.216Z,72.92
2023-06-09T03:07:14.531Z,74.64
2023-06-09T03:11:16.087Z,76.83
2023-06-09T03:15:18.004Z,80.21
2023-06-09T03:19:19.636Z,81.27
2023-06-09T03:23:22.461Z,83.20
2023-06-09T03:27:24.000Z,83.91
2023-06-09T03:31:25.831Z,84.67
2023-06-09T03:35:27.685Z,88.80
2023-06-09T03:39:29.170Z,87.55
2023-06-09T03:43:30.932Z,87.98
2023-06-09T03:47:32.485Z,89.22
2023-06-09T03:51:34.066Z,89.94
2023-06-09T03:55:35.863Z,88.76
2023-06-09T03:59:37.447Z,88.25
2023-06-09T04:03:39.511Z,88.21
2023-06-09T04:07:41.632Z,88.78
2023-06-09T04:11:43.518Z,89.00
2023-06-09T04:15:45.039Z,90.29
2023-06-09T04:19:46.535Z,87.96
2023-06-09T04:23:48.070Z,87.80
2023-06-09T04:27:49.589Z,85.20
2023-06-09T04:32:00.121Z,85.70
2023-06-09T04:36:04.913Z,87.13
2023-06-09T04:40:09.855Z,86.40
2023-06-09T04:44:11.396Z,87.51
2023-06-09T04:48:13.965Z,84.38
2023-06-09T04:52:18.599Z,82.48
2023-06-09T04:56:20.730Z,81.24
2023-06-09T05:00:23.317Z,77.36
2023-06-09T05:04:25.145Z,76.08
2023-06-09T05:08:26.761Z,75.88
2023-06-09T05:12:28.556Z,71.78
2023-06-09T05:16:30.307Z,70.81
2023-06-09T05:20:32.502Z,68.48
2023-06-09T05:24:34.028Z,60.20
2023-06-09T05:28:35.632Z,58.64
2023-06-09T05:32:37.293Z,57.07
2023-06-09T05:36:38.919Z,53.25
2023-06-09T05:40:40.391Z,51.46
2023-06-09T05:44:42.023Z,48.92
2023-06-09T05:48:43.494Z,51.28
2023-06-09T05:52:45.277Z,48.14
2023-06-09T05:56:49.791Z,46.42
2023-06-09T06:00:51.497Z,46.43
2023-06-09T06:04:52.976Z,45.25
2023-06-09T06:08:54.433Z,44.43
2023-06-09T06:12:59.204Z,42.81
2023-06-09T06:17:00.732Z,42.31
2023-06-09T06:21:02.216Z,41.51
2023-06-09T06:25:04.342Z,40.47
2023-06-09T06:29:06.360Z,39.36
2023-06-09T06:33:09.097Z,38.11
2023-06-09T06:37:11.108Z,39.02
2023-06-09T06:41:12.600Z,38.53
2023-06-09T06:45:14.145Z,39.38
2023-06-09T06:49:16.092Z,39.12
2023-06-09T06:53:17.844Z,37.02
2023-06-09T06:57:22.089Z,36.20
2023-06-09T07:01:27.011Z,37.59
2023-06-09T07:05:28.797Z,37.53
2023-06-09T07:09:30.275Z,37.93
2023-06-09T07:13:31.826Z,38.34
2023-06-09T07:17:33.536Z,37.93
2023-06-09T07:21:35.156Z,38.26
2023-06-09T07:25:37.017Z,38.83
2023-06-09T07:29:38.504Z,39.36
2023-06-09T07:33:41.758Z,37.66
2023-06-09T07:37:46.809Z,38.10
2023-06-09T07:41:48.437Z,38.47
2023-06-09T07:45:50.084Z,38.49
2023-06-09T07:49:51.646Z,37.25
2023-06-09T07:53:53.629Z,38.15
2023-06-09T07:57:56.446Z,37.96
2023-06-09T08:01:58.026Z,38.94
2023-06-09T08:05:59.624Z,38.64
2023-06-09T08:10:04.111Z,38.75
2023-06-09T08:14:08.328Z,37.17
2023-06-09T08:18:15.746Z,37.59
2023-06-09T08:22:17.308Z,37.69
2023-06-09T08:26:19.250Z,39.46
2023-06-09T08:30:20.734Z,39.20
2023-06-09T08:34:22.268Z,37.92
2023-06-09T08:38:23.908Z,38.72
2023-06-09T08:42:27.052Z,35.87
2023-06-09T08:46:33.623Z,37.93
2023-06-09T08:50:42.210Z,36.55
2023-06-09T08:54:45.782Z,36.34
2023-06-09T08:58:48.890Z,37.78
2023-06-09T09:02:50.681Z,36.81
2023-06-09T09:06:54.268Z,34.95
2023-06-09T09:10:55.866Z,34.87
2023-06-09T09:15:00.406Z,35.10
2023-06-09T09:19:03.360Z,34.75
2023-06-09T09:23:07.139Z,32.92
2023-06-09T09:27:24.082Z,33.81
2023-06-09T09:31:33.913Z,33.36
2023-06-09T09:35:45.653Z,33.72
2023-06-09T09:39:51.931Z,33.60
2023-06-09T09:43:59.810Z,34.64
2023-06-09T09:48:10.346Z,33.62
2023-06-09T09:52:16.097Z,34.17
2023-06-09T09:56:25.307Z,33.33
2023-06-09T10:00:31.501Z,32.94
2023-06-09T10:04:34.569Z,32.26
2023-06-09T10:08:36.703Z,31.57
2023-06-09T10:12:39.727Z,31.20
2023-06-09T10:16:42.505Z,30.65
2023-06-09T10:20:45.657Z,31.05
2023-06-09T10:24:51.674Z,30.75
2023-06-09T10:28:53.181Z,31.28
2023-06-09T10:33:00.205Z,30.96
2023-06-09T10:37:02.029Z,30.26
2023-06-09T10:41:14.310Z,29.97
2023-06-09T10:45:20.051Z,30.83
2023-06-09T10:49:27.890Z,30.40
2023-06-09T10:53:29.479Z,29.75
2023-06-09T10:57:41.323Z,29.06
2023-06-09T11:02:01.689Z,30.77
2023-06-09T11:06:03.400Z,29.54
2023-06-09T11:10:04.896Z,28.96
2023-06-09T11:14:06.442Z,28.64
2023-06-09T11:18:18.206Z,28.58
2023-06-09T11:22:19.907Z,28.30
2023-06-09T11:26:25.454Z,27.60
2023-06-09T11:30:28.933Z,27.08
2023-06-09T11:34:51.209Z,27.46
2023-06-09T11:38:53.099Z,27.52
2023-06-09T11:42:57.890Z,27.04
2023-06-09T11:46:59.544Z,25.84
2023-06-09T11:51:01.834Z,26.76
2023-06-09T11:55:05.364Z,26.30
2023-06-09T11:59:08.232Z,26.39
2023-06-09T12:03:11.791Z,26.27
2023-06-09T12:07:18.534Z,25.46
2023-06-09T12:11:20.543Z,25.34
2023-06-09T12:15:24.694Z,26.16
2023-06-09T12:19:26.476Z,26.53
2023-06-09T12:23:28.949Z,26.22
2023-06-09T12:27:30.802Z,25.66
2023-06-09T12:31:32.389Z,24.82
2023-06-09T12:35:41.808Z,25.96
2023-06-09T12:39:43.642Z,26.06
2023-06-09T12:43:53.365Z,26.24
2023-06-09T12:47:55.260Z,26.18
2023-06-09T12:51:58.092Z,25.92
2023-06-09T12:55:59.663Z,25.97
2023-06-09T13:00:19.884Z,24.82
2023-06-09T13:04:23.586Z,25.39
2023-06-09T13:08:25.433Z,24.42
2023-06-09T13:12:26.985Z,24.45
2023-06-09T13:16:28.552Z,25.51
2023-06-09T13:20:30.347Z,24.50
2023-06-09T13:24:31.821Z,24.78
2023-06-09T13:28:33.477Z,24.44
2023-06-09T13:32:36.523Z,24.29
2023-06-09T13:36:38.246Z,23.24
2023-06-09T13:40:43.623Z,23.46
2023-06-09T13:44:45.506Z,23.08
2023-06-09T13:48:47.084Z,23.13
2023-06-09T13:52:48.745Z,22.99
2023-06-09T13:56:51.017Z,22.11
2023-06-09T14:00:53.154Z,22.37
2023-06-09T14:04:55.107Z,23.34
2023-06-09T14:08:57.017Z,22.95
2023-06-09T14:12:59.168Z,23.19
2023-06-09T14:17:01.734Z,23.01
2023-06-09T14:21:04.346Z,23.24
2023-06-09T14:25:06.758Z,23.59
2023-06-09T14:29:08.503Z,23.40
2023-06-09T14:33:10.218Z,22.45
2023-06-09T14:37:11.812Z,22.84
2023-06-09T14:41:15.933Z,22.39
2023-06-09T14:45:22.069Z,22.41
2023-06-09T14:49:23.659Z,22.26
2023-06-09T14:53:25.219Z,22.86
2023-06-09T14:57:26.761Z,22.13
2023-06-09T15:01:28.304Z,22.44
2023-06-09T15:05:31.422Z,22.21
2023-06-09T15:09:32.960Z,22.40
2023-06-09T15:13:34.482Z,23.04
2023-06-09T15:17:37.740Z,23.11
2023-06-09T15:21:39.342Z,23.15
2023-06-09T15:25:48.680Z,22.97
2023-06-09T15:29:54.721Z,23.35
2023-06-09T15:33:57.052Z,22.69
2023-06-09T15:38:02.395Z,22.09
2023-06-09T15:42:04.244Z,22.98
2023-06-09T15:46:05.784Z,23.90
2023-06-09T15:50:07.535Z,24.98
2023-06-09T15:54:09.092Z,24.86
2023-06-09T15:58:10.678Z,25.04
2023-06-09T16:02:12.424Z,24.53
2023-06-09T16:06:14.054Z,25.26
2023-06-09T16:10:15.760Z,24.50
2023-06-09T16:14:17.341Z,25.13
2023-06-09T16:18:22.738Z,24.82
2023-06-09T16:22:28.483Z,25.46
2023-06-09T16:26:29.984Z,24.82
2023-06-09T16:30:32.112Z,24.87
2023-06-09T16:34:34.139Z,25.10
2023-06-09T16:38:37.899Z,25.78
2023-06-09T16:42:39.420Z,26.75
2023-06-09T16:46:47.738Z,25.86
2023-06-09T16:50:55.012Z,26.96
2023-06-09T16:54:59.707Z,26.96
2023-06-09T16:59:03.353Z,26.27
2023-06-09T17:03:05.092Z,26.52
2023-06-09T17:07:06.860Z,26.79
2023-06-09T17:11:09.394Z,27.58
2023-06-09T17:15:11.856Z,28.47
2023-06-09T17:19:13.569Z,28.89
2023-06-09T17:23:15.168Z,28.62
2023-06-09T17:27:16.991Z,29.42
2023-06-09T17:31:21.302Z,29.76
2023-06-09T17:35:22.834Z,29.45
2023-06-09T17:39:24.608Z,31.18
2023-06-09T17:43:26.830Z,31.71
2023-06-09T17:47:31.793Z,32.00
2023-06-09T17:51:35.384Z,33.35
2023-06-09T17:55:37.020Z,34.27
2023-06-09T17:59:38.616Z,34.77
2023-06-09T18:03:40.113Z,35.99
2023-06-09T18:07:41.770Z,37.04
2023-06-09T18:11:43.284Z,38.28
2023-06-09T18:15:45.578Z,38.70
2023-06-09T18:19:47.660Z,38.48
2023-06-09T18:23:50.234Z,38.73
2023-06-09T18:27:51.864Z,38.70
2023-06-09T18:31:54.082Z,39.89
2023-06-09T18:36:01.576Z,40.83
2023-06-09T18:40:03.491Z,41.20
2023-06-09T18:44:16.423Z,41.08
2023-06-09T18:48:18.527Z,40.49
2023-06-09T18:52:20.804Z,40.74
2023-06-09T18:56:22.604Z,41.75
2023-06-09T19:00:24.310Z,42.81
2023-06-09T19:04:25.819Z,43.96
2023-06-09T19:08:27.337Z,44.86
2023-06-09T19:12:31.446Z,45.66
2023-06-09T19:16:36.877Z,45.12
2023-06-09T19:20:39.602Z,42.75
2023-06-09T19:24:44.145Z,42.92
2023-06-09T19:28:46.064Z,44.11
2023-06-09T19:32:48.630Z,44.03
2023-06-09T19:36:51.849Z,45.58
2023-06-09T19:40:53.557Z,46.50
2023-06-09T19:44:55.176Z,46.76
2023-06-09T19:49:01.130Z,48.16
2023-06-09T19:53:02.710Z,49.07
2023-06-09T19:57:04.852Z,50.65
2023-06-09T20:01:06.453Z,51.71
2023-06-09T20:05:08.732Z,51.67
2023-06-09T20:09:12.026Z,53.13
2023-06-09T20:13:13.618Z,54.50
2023-06-09T20:17:16.576Z,55.67
2023-06-09T20:21:18.951Z,57.18
2023-06-09T20:25:21.130Z,58.82
2023-06-09T20:29:22.613Z,59.82
2023-06-09T20:33:26.910Z,62.64
2023-06-09T20:37:28.387Z,64.61
2023-06-09T20:41:29.910Z,67.30
2023-06-09T20:45:36.022Z,66.77
2023-06-09T20:49:37.617Z,67.97
2023-06-09T20:53:39.126Z,70.25
2023-06-09T20:57:42.156Z,73.37
2023-06-09T21:01:47.531Z,77.37
2023-06-09T21:05:50.416Z,78.89
2023-06-09T21:09:51.968Z,79.75
2023-06-09T21:13:56.373Z,82.11
2023-06-09T21:17:57.919Z,84.40
2023-06-09T21:21:59.430Z,86.41
2023-06-09T21:26:01.027Z,87.90
2023-06-09T21:30:06.875Z,87.63
2023-06-09T21:34:08.416Z,88.80
2023-06-09T21:38:09.956Z,91.25
2023-06-09T21:42:13.286Z,93.31
2023-06-09T21:46:15.490Z,96.07
2023-06-09T21:50:17.035Z,96.12
2023-06-09T21:54:18.708Z,98.27
2023-06-09T21:58:20.406Z,98.12
2023-06-09T22:02:22.101Z,98.40
2023-06-09T22:06:23.582Z,100.00
2023-06-09T22:10:26.249Z,100.00
2023-06-09T22:14:27.880Z,100.00
2023-06-09T22:18:29.580Z,100.00
2023-06-09T22:22:31.508Z,100.00
2023-06-09T22:26:46.269Z,100.00
2023-06-09T22:30:54.687Z,100.00
2023-06-09T22:34:56.574Z,100.00
2023-06-09T22:38:58.673Z,100.00
2023-06-09T22:43:00.173Z,100.00
2023-06-09T22:47:04.569Z,100.00
2023-06-09T22:51:06.418Z,100.00
2023-06-09T22:55:10.868Z,100.00
2023-06-09T22:59:12.596Z,100.00
2023-06-09T23:03:14.132Z,100.00
2023-06-09T23:07:15.896Z,100.00
2023-06-09T23:11:18.949Z,100.00
2023-06-09T23:15:21.893Z,100.00
2023-06-09T23:19:26.292Z,100.00
2023-06-09T23:23:33.054Z,100.00
2023-06-09T23:27:37.152Z,100.00
2023-06-09T23:31:38.725Z,100.00
2023-06-09T23:35:40.580Z,100.00
2023-06-09T23:39:42.422Z,100.00
2023-06-09T23:43:44.201Z,100.00
2023-06-09T23:47:45.716Z,100.00
2023-06-09T23:51:47.284Z,100.00
2023-06-09T23:55:49.800Z,100.00
2023-06-09T23:59:51.520Z,100.00
